sensor_id;sensor_type;location;lat;lon;timestamp;temperature;humidity
38488;DHT22;57384;51.986;4.458;2023-07-29T00:01:23;20.20;68.80
38488;DHT22;57384;51.986;4.458;2023-07-29T00:03:50;20.20;68.90
38488;DHT22;57384;51.986;4.458;2023-07-29T00:06:17;20.20;68.90
38488;DHT22;57384;51.986;4.458;2023-07-29T00:08:46;20.10;68.80
38488;DHT22;57384;51.986;4.458;2023-07-29T00:11:14;20.20;69.10
38488;DHT22;57384;51.986;4.458;2023-07-29T00:13:41;20.10;68.90
38488;DHT22;57384;51.986;4.458;2023-07-29T00:16:07;20.20;68.90
38488;DHT22;57384;51.986;4.458;2023-07-29T00:18:34;20.10;68.80
38488;DHT22;57384;51.986;4.458;2023-07-29T00:21:02;20.10;68.80
38488;DHT22;57384;51.986;4.458;2023-07-29T00:23:29;20.00;68.80
38488;DHT22;57384;51.986;4.458;2023-07-29T00:25:55;20.00;68.90
38488;DHT22;57384;51.986;4.458;2023-07-29T00:28:22;20.00;68.90
38488;DHT22;57384;51.986;4.458;2023-07-29T00:30:50;20.00;68.80
38488;DHT22;57384;51.986;4.458;2023-07-29T00:33:17;20.00;68.80
38488;DHT22;57384;51.986;4.458;2023-07-29T00:35:43;20.00;69.00
38488;DHT22;57384;51.986;4.458;2023-07-29T00:38:12;19.90;68.90
38488;DHT22;57384;51.986;4.458;2023-07-29T00:40:38;19.90;68.90
38488;DHT22;57384;51.986;4.458;2023-07-29T00:43:05;19.90;69.00
38488;DHT22;57384;51.986;4.458;2023-07-29T00:45:34;19.90;69.00
38488;DHT22;57384;51.986;4.458;2023-07-29T00:48:02;19.80;69.20
38488;DHT22;57384;51.986;4.458;2023-07-29T00:50:30;19.80;69.10
38488;DHT22;57384;51.986;4.458;2023-07-29T00:52:58;19.80;69.40
38488;DHT22;57384;51.986;4.458;2023-07-29T00:55:26;19.80;69.40
38488;DHT22;57384;51.986;4.458;2023-07-29T00:57:53;19.80;69.40
38488;DHT22;57384;51.986;4.458;2023-07-29T01:00:20;19.80;69.00
38488;DHT22;57384;51.986;4.458;2023-07-29T01:02:49;19.70;68.80
38488;DHT22;57384;51.986;4.458;2023-07-29T01:05:19;19.60;69.10
38488;DHT22;57384;51.986;4.458;2023-07-29T01:07:55;19.60;69.30
38488;DHT22;57384;51.986;4.458;2023-07-29T01:10:43;19.60;69.60
38488;DHT22;57384;51.986;4.458;2023-07-29T01:13:33;19.60;69.60
38488;DHT22;57384;51.986;4.458;2023-07-29T01:16:17;19.60;69.50
38488;DHT22;57384;51.986;4.458;2023-07-29T01:18:50;19.60;69.80
38488;DHT22;57384;51.986;4.458;2023-07-29T01:21:22;19.50;69.70
38488;DHT22;57384;51.986;4.458;2023-07-29T01:23:52;19.50;69.70
38488;DHT22;57384;51.986;4.458;2023-07-29T01:26:20;19.50;69.90
38488;DHT22;57384;51.986;4.458;2023-07-29T01:28:47;19.50;69.80
38488;DHT22;57384;51.986;4.458;2023-07-29T01:31:33;19.50;69.80
38488;DHT22;57384;51.986;4.458;2023-07-29T01:36:51;19.50;69.80
38488;DHT22;57384;51.986;4.458;2023-07-29T01:39:24;19.50;69.90
38488;DHT22;57384;51.986;4.458;2023-07-29T01:41:52;19.50;69.80
38488;DHT22;57384;51.986;4.458;2023-07-29T01:44:20;19.50;69.80
38488;DHT22;57384;51.986;4.458;2023-07-29T01:46:50;19.40;69.90
38488;DHT22;57384;51.986;4.458;2023-07-29T01:49:16;19.40;69.80
38488;DHT22;57384;51.986;4.458;2023-07-29T01:51:43;19.40;69.80
38488;DHT22;57384;51.986;4.458;2023-07-29T01:54:12;19.30;69.90
38488;DHT22;57384;51.986;4.458;2023-07-29T01:56:39;19.40;69.80
38488;DHT22;57384;51.986;4.458;2023-07-29T01:59:06;19.30;69.90
38488;DHT22;57384;51.986;4.458;2023-07-29T02:01:32;19.30;69.90
38488;DHT22;57384;51.986;4.458;2023-07-29T02:03:59;19.30;69.80
38488;DHT22;57384;51.986;4.458;2023-07-29T02:06:26;19.30;69.90
38488;DHT22;57384;51.986;4.458;2023-07-29T02:08:55;19.30;70.00
38488;DHT22;57384;51.986;4.458;2023-07-29T02:11:22;19.30;70.20
38488;DHT22;57384;51.986;4.458;2023-07-29T02:13:49;19.20;70.20
38488;DHT22;57384;51.986;4.458;2023-07-29T02:16:16;19.20;70.20
38488;DHT22;57384;51.986;4.458;2023-07-29T02:18:44;19.20;70.10
38488;DHT22;57384;51.986;4.458;2023-07-29T02:21:13;19.20;70.10
38488;DHT22;57384;51.986;4.458;2023-07-29T02:23:42;19.20;70.20
38488;DHT22;57384;51.986;4.458;2023-07-29T02:26:09;19.20;70.00
38488;DHT22;57384;51.986;4.458;2023-07-29T02:28:36;19.20;70.20
38488;DHT22;57384;51.986;4.458;2023-07-29T02:31:29;19.20;70.20
38488;DHT22;57384;51.986;4.458;2023-07-29T02:33:57;19.10;70.30
38488;DHT22;57384;51.986;4.458;2023-07-29T02:36:23;19.10;70.20
38488;DHT22;57384;51.986;4.458;2023-07-29T02:38:50;19.10;70.30
38488;DHT22;57384;51.986;4.458;2023-07-29T02:41:17;19.10;70.30
38488;DHT22;57384;51.986;4.458;2023-07-29T02:43:47;19.10;70.30
38488;DHT22;57384;51.986;4.458;2023-07-29T02:46:15;19.10;70.20
38488;DHT22;57384;51.986;4.458;2023-07-29T02:48:44;19.00;70.20
38488;DHT22;57384;51.986;4.458;2023-07-29T02:51:10;19.00;70.40
38488;DHT22;57384;51.986;4.458;2023-07-29T02:53:37;19.00;70.40
38488;DHT22;57384;51.986;4.458;2023-07-29T02:56:06;19.00;70.40
38488;DHT22;57384;51.986;4.458;2023-07-29T02:58:33;19.00;70.40
38488;DHT22;57384;51.986;4.458;2023-07-29T03:01:04;18.90;70.40
38488;DHT22;57384;51.986;4.458;2023-07-29T03:03:32;19.00;70.70
38488;DHT22;57384;51.986;4.458;2023-07-29T03:06:00;18.90;70.60
38488;DHT22;57384;51.986;4.458;2023-07-29T03:08:28;18.90;70.70
38488;DHT22;57384;51.986;4.458;2023-07-29T03:10:55;19.00;70.80
38488;DHT22;57384;51.986;4.458;2023-07-29T03:13:21;18.90;70.80
38488;DHT22;57384;51.986;4.458;2023-07-29T03:15:51;18.90;70.40
38488;DHT22;57384;51.986;4.458;2023-07-29T03:18:23;18.90;70.40
38488;DHT22;57384;51.986;4.458;2023-07-29T03:20:52;18.90;70.70
38488;DHT22;57384;51.986;4.458;2023-07-29T03:23:19;18.90;70.80
38488;DHT22;57384;51.986;4.458;2023-07-29T03:25:49;18.90;71.00
38488;DHT22;57384;51.986;4.458;2023-07-29T03:28:17;18.90;71.70
38488;DHT22;57384;51.986;4.458;2023-07-29T03:30:43;18.90;71.10
38488;DHT22;57384;51.986;4.458;2023-07-29T03:33:10;18.90;71.10
38488;DHT22;57384;51.986;4.458;2023-07-29T03:35:37;18.90;71.20
38488;DHT22;57384;51.986;4.458;2023-07-29T03:38:03;18.90;71.30
38488;DHT22;57384;51.986;4.458;2023-07-29T03:40:30;18.90;71.30
38488;DHT22;57384;51.986;4.458;2023-07-29T03:42:57;18.90;71.30
38488;DHT22;57384;51.986;4.458;2023-07-29T03:45:26;18.90;71.30
38488;DHT22;57384;51.986;4.458;2023-07-29T03:47:53;18.90;71.30
38488;DHT22;57384;51.986;4.458;2023-07-29T03:50:20;18.90;71.30
38488;DHT22;57384;51.986;4.458;2023-07-29T03:52:53;18.90;71.40
38488;DHT22;57384;51.986;4.458;2023-07-29T03:55:21;18.90;71.40
38488;DHT22;57384;51.986;4.458;2023-07-29T03:57:48;18.90;71.40
38488;DHT22;57384;51.986;4.458;2023-07-29T04:00:14;18.90;71.40
38488;DHT22;57384;51.986;4.458;2023-07-29T04:02:42;18.90;71.60
38488;DHT22;57384;51.986;4.458;2023-07-29T04:05:09;18.90;71.40
38488;DHT22;57384;51.986;4.458;2023-07-29T04:07:36;18.90;71.60
38488;DHT22;57384;51.986;4.458;2023-07-29T04:10:03;19.00;71.50
38488;DHT22;57384;51.986;4.458;2023-07-29T04:12:30;18.90;71.30
38488;DHT22;57384;51.986;4.458;2023-07-29T04:14:57;18.90;71.00
38488;DHT22;57384;51.986;4.458;2023-07-29T04:17:25;18.90;71.20
38488;DHT22;57384;51.986;4.458;2023-07-29T04:19:52;18.90;71.40
38488;DHT22;57384;51.986;4.458;2023-07-29T04:22:20;18.90;71.60
38488;DHT22;57384;51.986;4.458;2023-07-29T04:24:46;18.90;71.70
38488;DHT22;57384;51.986;4.458;2023-07-29T04:27:14;18.90;71.60
38488;DHT22;57384;51.986;4.458;2023-07-29T04:29:41;18.90;71.70
38488;DHT22;57384;51.986;4.458;2023-07-29T04:32:07;18.90;71.70
38488;DHT22;57384;51.986;4.458;2023-07-29T04:34:34;18.90;71.80
38488;DHT22;57384;51.986;4.458;2023-07-29T04:37:01;18.90;71.90
38488;DHT22;57384;51.986;4.458;2023-07-29T04:39:30;18.90;71.80
38488;DHT22;57384;51.986;4.458;2023-07-29T04:41:59;18.90;71.80
38488;DHT22;57384;51.986;4.458;2023-07-29T04:44:26;19.00;71.90
38488;DHT22;57384;51.986;4.458;2023-07-29T04:46:53;19.00;71.80
38488;DHT22;57384;51.986;4.458;2023-07-29T04:49:21;19.00;72.00
38488;DHT22;57384;51.986;4.458;2023-07-29T04:51:50;19.00;72.10
38488;DHT22;57384;51.986;4.458;2023-07-29T04:54:21;19.00;72.10
38488;DHT22;57384;51.986;4.458;2023-07-29T04:56:50;19.00;72.20
38488;DHT22;57384;51.986;4.458;2023-07-29T04:59:17;19.00;72.30
38488;DHT22;57384;51.986;4.458;2023-07-29T05:01:44;19.10;72.20
38488;DHT22;57384;51.986;4.458;2023-07-29T05:04:10;19.00;72.20
38488;DHT22;57384;51.986;4.458;2023-07-29T05:06:39;19.10;72.30
38488;DHT22;57384;51.986;4.458;2023-07-29T05:09:17;19.10;72.50
38488;DHT22;57384;51.986;4.458;2023-07-29T05:11:44;19.10;72.60
38488;DHT22;57384;51.986;4.458;2023-07-29T05:14:13;19.10;72.40
38488;DHT22;57384;51.986;4.458;2023-07-29T05:16:40;19.10;72.60
38488;DHT22;57384;51.986;4.458;2023-07-29T05:19:09;19.10;72.60
38488;DHT22;57384;51.986;4.458;2023-07-29T05:21:37;19.10;72.60
38488;DHT22;57384;51.986;4.458;2023-07-29T05:24:04;19.10;72.70
38488;DHT22;57384;51.986;4.458;2023-07-29T05:26:32;19.20;72.70
38488;DHT22;57384;51.986;4.458;2023-07-29T05:28:59;19.10;72.70
38488;DHT22;57384;51.986;4.458;2023-07-29T05:31:26;19.20;72.70
38488;DHT22;57384;51.986;4.458;2023-07-29T05:34:01;19.10;72.80
38488;DHT22;57384;51.986;4.458;2023-07-29T05:36:28;19.20;72.90
38488;DHT22;57384;51.986;4.458;2023-07-29T05:38:55;19.20;72.90
38488;DHT22;57384;51.986;4.458;2023-07-29T05:41:23;19.20;72.90
38488;DHT22;57384;51.986;4.458;2023-07-29T05:43:51;19.30;73.10
38488;DHT22;57384;51.986;4.458;2023-07-29T05:46:18;19.30;73.20
38488;DHT22;57384;51.986;4.458;2023-07-29T05:48:44;19.30;73.10
38488;DHT22;57384;51.986;4.458;2023-07-29T05:51:12;19.30;73.10
38488;DHT22;57384;51.986;4.458;2023-07-29T05:53:39;19.30;73.00
38488;DHT22;57384;51.986;4.458;2023-07-29T05:56:06;19.40;72.90
38488;DHT22;57384;51.986;4.458;2023-07-29T05:58:34;19.40;72.90
38488;DHT22;57384;51.986;4.458;2023-07-29T06:01:00;19.40;73.10
38488;DHT22;57384;51.986;4.458;2023-07-29T06:03:28;19.40;73.10
38488;DHT22;57384;51.986;4.458;2023-07-29T06:05:56;19.50;73.10
38488;DHT22;57384;51.986;4.458;2023-07-29T06:08:26;19.50;73.20
38488;DHT22;57384;51.986;4.458;2023-07-29T06:11:00;19.50;73.10
38488;DHT22;57384;51.986;4.458;2023-07-29T06:13:28;19.60;73.20
38488;DHT22;57384;51.986;4.458;2023-07-29T06:15:55;19.60;73.10
38488;DHT22;57384;51.986;4.458;2023-07-29T06:18:23;19.60;73.20
38488;DHT22;57384;51.986;4.458;2023-07-29T06:20:51;19.60;73.30
38488;DHT22;57384;51.986;4.458;2023-07-29T06:23:18;19.60;73.10
38488;DHT22;57384;51.986;4.458;2023-07-29T06:25:45;19.70;72.70
38488;DHT22;57384;51.986;4.458;2023-07-29T06:28:12;19.70;72.90
38488;DHT22;57384;51.986;4.458;2023-07-29T06:30:42;19.70;73.00
38488;DHT22;57384;51.986;4.458;2023-07-29T06:33:11;19.70;73.10
38488;DHT22;57384;51.986;4.458;2023-07-29T06:35:38;19.80;73.10
38488;DHT22;57384;51.986;4.458;2023-07-29T06:38:05;19.80;73.10
38488;DHT22;57384;51.986;4.458;2023-07-29T06:40:31;19.90;73.10
38488;DHT22;57384;51.986;4.458;2023-07-29T06:42:58;19.90;73.10
38488;DHT22;57384;51.986;4.458;2023-07-29T06:45:25;20.00;73.10
38488;DHT22;57384;51.986;4.458;2023-07-29T06:47:51;20.00;73.10
38488;DHT22;57384;51.986;4.458;2023-07-29T06:50:18;20.10;73.20
38488;DHT22;57384;51.986;4.458;2023-07-29T06:52:46;20.20;73.20
38488;DHT22;57384;51.986;4.458;2023-07-29T06:55:12;20.20;73.20
38488;DHT22;57384;51.986;4.458;2023-07-29T06:57:39;20.30;73.00
38488;DHT22;57384;51.986;4.458;2023-07-29T07:00:07;20.40;73.00
38488;DHT22;57384;51.986;4.458;2023-07-29T07:02:35;20.40;73.60
38488;DHT22;57384;51.986;4.458;2023-07-29T07:05:02;20.50;73.00
38488;DHT22;57384;51.986;4.458;2023-07-29T07:07:28;20.60;72.90
38488;DHT22;57384;51.986;4.458;2023-07-29T07:09:57;20.60;72.80
38488;DHT22;57384;51.986;4.458;2023-07-29T07:12:24;20.70;72.70
38488;DHT22;57384;51.986;4.458;2023-07-29T07:14:50;20.70;72.40
38488;DHT22;57384;51.986;4.458;2023-07-29T07:17:17;20.80;72.30
38488;DHT22;57384;51.986;4.458;2023-07-29T07:19:43;20.90;72.10
38488;DHT22;57384;51.986;4.458;2023-07-29T07:22:11;20.90;72.10
38488;DHT22;57384;51.986;4.458;2023-07-29T07:24:39;21.00;72.00
38488;DHT22;57384;51.986;4.458;2023-07-29T07:27:05;21.20;72.10
38488;DHT22;57384;51.986;4.458;2023-07-29T07:29:32;21.20;72.00
38488;DHT22;57384;51.986;4.458;2023-07-29T07:31:59;21.30;71.70
38488;DHT22;57384;51.986;4.458;2023-07-29T07:34:26;21.50;71.50
38488;DHT22;57384;51.986;4.458;2023-07-29T07:36:52;21.60;71.10
38488;DHT22;57384;51.986;4.458;2023-07-29T07:39:19;21.70;71.00
38488;DHT22;57384;51.986;4.458;2023-07-29T07:41:45;21.80;70.70
38488;DHT22;57384;51.986;4.458;2023-07-29T07:44:13;22.00;70.40
38488;DHT22;57384;51.986;4.458;2023-07-29T07:46:40;22.10;70.20
38488;DHT22;57384;51.986;4.458;2023-07-29T07:49:06;22.20;70.10
38488;DHT22;57384;51.986;4.458;2023-07-29T07:51:33;22.40;70.00
38488;DHT22;57384;51.986;4.458;2023-07-29T07:53:59;22.50;69.80
38488;DHT22;57384;51.986;4.458;2023-07-29T07:56:26;22.60;69.60
38488;DHT22;57384;51.986;4.458;2023-07-29T07:58:52;22.80;69.40
38488;DHT22;57384;51.986;4.458;2023-07-29T08:01:19;22.90;69.30
38488;DHT22;57384;51.986;4.458;2023-07-29T08:03:46;23.10;69.00
38488;DHT22;57384;51.986;4.458;2023-07-29T08:06:12;23.20;68.50
38488;DHT22;57384;51.986;4.458;2023-07-29T08:08:39;23.40;68.40
38488;DHT22;57384;51.986;4.458;2023-07-29T08:11:06;23.50;68.20
38488;DHT22;57384;51.986;4.458;2023-07-29T08:13:36;23.60;68.00
38488;DHT22;57384;51.986;4.458;2023-07-29T08:16:03;23.80;67.70
38488;DHT22;57384;51.986;4.458;2023-07-29T08:18:29;23.90;68.20
38488;DHT22;57384;51.986;4.458;2023-07-29T08:20:59;24.10;67.50
38488;DHT22;57384;51.986;4.458;2023-07-29T08:23:26;24.30;67.70
38488;DHT22;57384;51.986;4.458;2023-07-29T08:25:55;24.50;67.00
38488;DHT22;57384;51.986;4.458;2023-07-29T08:33:52;25.00;66.90
38488;DHT22;57384;51.986;4.458;2023-07-29T08:36:19;25.10;66.80
38488;DHT22;57384;51.986;4.458;2023-07-29T08:38:47;25.20;66.40
38488;DHT22;57384;51.986;4.458;2023-07-29T08:41:16;25.30;67.00
38488;DHT22;57384;51.986;4.458;2023-07-29T08:43:59;25.30;66.40
38488;DHT22;57384;51.986;4.458;2023-07-29T08:46:29;25.40;66.20
38488;DHT22;57384;51.986;4.458;2023-07-29T08:48:56;25.50;66.50
38488;DHT22;57384;51.986;4.458;2023-07-29T08:51:23;25.50;66.30
38488;DHT22;57384;51.986;4.458;2023-07-29T08:53:50;25.60;66.10
38488;DHT22;57384;51.986;4.458;2023-07-29T08:56:17;25.60;66.00
38488;DHT22;57384;51.986;4.458;2023-07-29T08:58:44;25.60;66.30
38488;DHT22;57384;51.986;4.458;2023-07-29T09:01:12;25.60;66.40
38488;DHT22;57384;51.986;4.458;2023-07-29T09:03:38;25.60;66.00
38488;DHT22;57384;51.986;4.458;2023-07-29T09:06:05;25.50;65.60
38488;DHT22;57384;51.986;4.458;2023-07-29T09:08:33;25.50;65.50
38488;DHT22;57384;51.986;4.458;2023-07-29T09:11:02;25.50;65.30
38488;DHT22;57384;51.986;4.458;2023-07-29T09:13:30;25.50;65.10
38488;DHT22;57384;51.986;4.458;2023-07-29T09:15:57;25.50;64.70
38488;DHT22;57384;51.986;4.458;2023-07-29T09:18:26;25.50;64.60
38488;DHT22;57384;51.986;4.458;2023-07-29T09:20:53;25.50;64.50
38488;DHT22;57384;51.986;4.458;2023-07-29T09:23:20;25.50;64.60
38488;DHT22;57384;51.986;4.458;2023-07-29T09:26:01;25.50;64.50
38488;DHT22;57384;51.986;4.458;2023-07-29T09:28:35;25.50;64.40
38488;DHT22;57384;51.986;4.458;2023-07-29T09:31:05;25.50;64.20
38488;DHT22;57384;51.986;4.458;2023-07-29T09:33:35;25.50;64.20
38488;DHT22;57384;51.986;4.458;2023-07-29T09:36:10;25.50;63.90
38488;DHT22;57384;51.986;4.458;2023-07-29T09:38:38;25.50;63.60
38488;DHT22;57384;51.986;4.458;2023-07-29T09:41:05;25.50;63.60
38488;DHT22;57384;51.986;4.458;2023-07-29T09:43:33;25.50;63.40
38488;DHT22;57384;51.986;4.458;2023-07-29T09:46:04;25.50;63.40
38488;DHT22;57384;51.986;4.458;2023-07-29T09:48:38;25.50;63.40
38488;DHT22;57384;51.986;4.458;2023-07-29T09:51:14;25.50;63.50
38488;DHT22;57384;51.986;4.458;2023-07-29T09:53:48;25.60;63.90
38488;DHT22;57384;51.986;4.458;2023-07-29T09:56:17;25.60;63.40
38488;DHT22;57384;51.986;4.458;2023-07-29T09:58:45;25.60;63.40
38488;DHT22;57384;51.986;4.458;2023-07-29T10:01:13;25.60;63.30
38488;DHT22;57384;51.986;4.458;2023-07-29T10:03:40;25.70;63.30
38488;DHT22;57384;51.986;4.458;2023-07-29T10:06:14;25.70;63.30
38488;DHT22;57384;51.986;4.458;2023-07-29T10:08:43;25.70;63.30
38488;DHT22;57384;51.986;4.458;2023-07-29T10:11:11;25.70;63.10
38488;DHT22;57384;51.986;4.458;2023-07-29T10:13:39;25.80;63.10
38488;DHT22;57384;51.986;4.458;2023-07-29T10:16:12;25.80;63.10
38488;DHT22;57384;51.986;4.458;2023-07-29T10:18:42;25.80;63.50
38488;DHT22;57384;51.986;4.458;2023-07-29T10:21:10;25.80;63.40
38488;DHT22;57384;51.986;4.458;2023-07-29T10:23:43;25.80;63.50
38488;DHT22;57384;51.986;4.458;2023-07-29T10:26:14;25.80;63.40
38488;DHT22;57384;51.986;4.458;2023-07-29T10:28:47;25.80;63.30
38488;DHT22;57384;51.986;4.458;2023-07-29T10:31:17;25.70;63.30
38488;DHT22;57384;51.986;4.458;2023-07-29T10:33:45;25.70;63.40
38488;DHT22;57384;51.986;4.458;2023-07-29T10:36:15;25.70;63.60
38488;DHT22;57384;51.986;4.458;2023-07-29T10:38:42;25.60;63.50
38488;DHT22;57384;51.986;4.458;2023-07-29T10:41:09;25.60;63.60
38488;DHT22;57384;51.986;4.458;2023-07-29T10:43:38;25.50;63.60
38488;DHT22;57384;51.986;4.458;2023-07-29T10:46:24;25.40;63.70
38488;DHT22;57384;51.986;4.458;2023-07-29T10:51:28;25.40;63.90
38488;DHT22;57384;51.986;4.458;2023-07-29T10:54:09;25.30;63.90
38488;DHT22;57384;51.986;4.458;2023-07-29T10:56:39;25.30;63.80
38488;DHT22;57384;51.986;4.458;2023-07-29T11:01:40;25.20;63.90
38488;DHT22;57384;51.986;4.458;2023-07-29T11:12:39;25.30;64.50
38488;DHT22;57384;51.986;4.458;2023-07-29T11:15:21;25.30;64.40
38488;DHT22;57384;51.986;4.458;2023-07-29T11:18:01;25.40;64.20
38488;DHT22;57384;51.986;4.458;2023-07-29T11:20:35;25.40;64.20
38488;DHT22;57384;51.986;4.458;2023-07-29T11:23:03;25.50;63.90
38488;DHT22;57384;51.986;4.458;2023-07-29T11:25:36;25.50;63.90
38488;DHT22;57384;51.986;4.458;2023-07-29T11:28:03;25.60;64.00
38488;DHT22;57384;51.986;4.458;2023-07-29T11:30:30;25.60;63.90
38488;DHT22;57384;51.986;4.458;2023-07-29T11:32:58;25.70;63.80
38488;DHT22;57384;51.986;4.458;2023-07-29T11:35:26;25.70;63.80
38488;DHT22;57384;51.986;4.458;2023-07-29T11:37:54;25.70;63.60
38488;DHT22;57384;51.986;4.458;2023-07-29T11:40:26;25.80;63.70
38488;DHT22;57384;51.986;4.458;2023-07-29T11:43:00;25.80;63.50
38488;DHT22;57384;51.986;4.458;2023-07-29T11:45:26;25.80;63.60
38488;DHT22;57384;51.986;4.458;2023-07-29T11:47:56;25.90;63.70
38488;DHT22;57384;51.986;4.458;2023-07-29T11:50:26;25.90;63.70
38488;DHT22;57384;51.986;4.458;2023-07-29T11:52:52;26.00;63.50
38488;DHT22;57384;51.986;4.458;2023-07-29T11:55:25;26.00;63.60
38488;DHT22;57384;51.986;4.458;2023-07-29T11:57:52;26.00;63.50
38488;DHT22;57384;51.986;4.458;2023-07-29T12:00:21;26.00;63.50
38488;DHT22;57384;51.986;4.458;2023-07-29T12:02:54;26.10;63.40
38488;DHT22;57384;51.986;4.458;2023-07-29T12:05:22;26.10;63.30
38488;DHT22;57384;51.986;4.458;2023-07-29T12:07:51;26.10;63.10
38488;DHT22;57384;51.986;4.458;2023-07-29T12:10:18;26.20;63.00
38488;DHT22;57384;51.986;4.458;2023-07-29T12:12:50;26.20;63.10
38488;DHT22;57384;51.986;4.458;2023-07-29T12:15:24;26.40;63.00
38488;DHT22;57384;51.986;4.458;2023-07-29T12:17:54;26.40;62.90
38488;DHT22;57384;51.986;4.458;2023-07-29T12:20:22;26.50;62.80
38488;DHT22;57384;51.986;4.458;2023-07-29T12:22:56;26.70;62.80
38488;DHT22;57384;51.986;4.458;2023-07-29T12:25:23;26.80;62.80
38488;DHT22;57384;51.986;4.458;2023-07-29T12:27:52;26.90;62.40
38488;DHT22;57384;51.986;4.458;2023-07-29T12:30:22;27.10;62.40
38488;DHT22;57384;51.986;4.458;2023-07-29T12:32:50;27.20;61.70
38488;DHT22;57384;51.986;4.458;2023-07-29T12:35:17;27.40;62.10
38488;DHT22;57384;51.986;4.458;2023-07-29T12:37:43;27.60;62.10
38488;DHT22;57384;51.986;4.458;2023-07-29T12:40:37;27.80;62.20
38488;DHT22;57384;51.986;4.458;2023-07-29T12:43:04;28.00;62.40
38488;DHT22;57384;51.986;4.458;2023-07-29T12:45:36;28.20;61.60
38488;DHT22;57384;51.986;4.458;2023-07-29T12:48:02;28.30;60.90
38488;DHT22;57384;51.986;4.458;2023-07-29T12:50:29;28.50;61.70
38488;DHT22;57384;51.986;4.458;2023-07-29T12:52:56;28.70;61.50
38488;DHT22;57384;51.986;4.458;2023-07-29T12:55:23;28.90;61.20
38488;DHT22;57384;51.986;4.458;2023-07-29T12:57:50;29.10;61.10
38488;DHT22;57384;51.986;4.458;2023-07-29T13:00:17;29.30;60.90
38488;DHT22;57384;51.986;4.458;2023-07-29T13:02:44;29.60;61.30
38488;DHT22;57384;51.986;4.458;2023-07-29T13:05:12;29.80;61.60
38488;DHT22;57384;51.986;4.458;2023-07-29T13:07:39;29.90;60.80
38488;DHT22;57384;51.986;4.458;2023-07-29T13:10:06;30.10;61.60
38488;DHT22;57384;51.986;4.458;2023-07-29T13:12:33;30.20;60.90
38488;DHT22;57384;51.986;4.458;2023-07-29T13:15:00;30.40;61.20
38488;DHT22;57384;51.986;4.458;2023-07-29T13:17:30;30.60;61.00
38488;DHT22;57384;51.986;4.458;2023-07-29T13:19:57;30.70;60.40
38488;DHT22;57384;51.986;4.458;2023-07-29T13:22:24;30.90;59.80
38488;DHT22;57384;51.986;4.458;2023-07-29T13:24:51;31.10;59.70
38488;DHT22;57384;51.986;4.458;2023-07-29T13:27:17;31.30;60.30
38488;DHT22;57384;51.986;4.458;2023-07-29T13:29:44;31.40;59.70
38488;DHT22;57384;51.986;4.458;2023-07-29T13:32:10;31.60;60.10
38488;DHT22;57384;51.986;4.458;2023-07-29T13:34:37;31.70;59.70
38488;DHT22;57384;51.986;4.458;2023-07-29T13:37:04;31.90;59.90
38488;DHT22;57384;51.986;4.458;2023-07-29T13:39:33;32.00;59.10
38488;DHT22;57384;51.986;4.458;2023-07-29T13:42:00;32.20;58.60
38488;DHT22;57384;51.986;4.458;2023-07-29T13:44:27;32.20;57.60
38488;DHT22;57384;51.986;4.458;2023-07-29T13:46:54;32.30;58.10
38488;DHT22;57384;51.986;4.458;2023-07-29T13:49:20;32.40;57.70
38488;DHT22;57384;51.986;4.458;2023-07-29T13:54:17;32.50;56.80
38488;DHT22;57384;51.986;4.458;2023-07-29T13:56:43;32.50;56.60
38488;DHT22;57384;51.986;4.458;2023-07-29T13:59:10;32.60;56.10
38488;DHT22;57384;51.986;4.458;2023-07-29T14:01:36;32.60;55.60
38488;DHT22;57384;51.986;4.458;2023-07-29T14:04:03;32.60;56.00
38488;DHT22;57384;51.986;4.458;2023-07-29T14:06:32;32.60;54.70
38488;DHT22;57384;51.986;4.458;2023-07-29T14:08:59;32.60;54.60
38488;DHT22;57384;51.986;4.458;2023-07-29T14:11:25;32.60;54.10
38488;DHT22;57384;51.986;4.458;2023-07-29T14:13:53;32.60;54.70
38488;DHT22;57384;51.986;4.458;2023-07-29T14:16:19;32.60;54.00
38488;DHT22;57384;51.986;4.458;2023-07-29T14:18:46;32.60;54.50
38488;DHT22;57384;51.986;4.458;2023-07-29T14:21:14;32.60;53.30
38488;DHT22;57384;51.986;4.458;2023-07-29T14:23:40;32.60;53.10
38488;DHT22;57384;51.986;4.458;2023-07-29T14:26:13;32.60;52.90
38488;DHT22;57384;51.986;4.458;2023-07-29T14:28:40;32.70;53.00
38488;DHT22;57384;51.986;4.458;2023-07-29T14:31:06;32.70;51.60
38488;DHT22;57384;51.986;4.458;2023-07-29T14:33:33;32.70;52.40
38488;DHT22;57384;51.986;4.458;2023-07-29T14:36:00;32.70;52.20
38488;DHT22;57384;51.986;4.458;2023-07-29T14:38:27;32.70;52.20
38488;DHT22;57384;51.986;4.458;2023-07-29T14:40:55;32.70;51.80
38488;DHT22;57384;51.986;4.458;2023-07-29T14:43:22;32.60;51.30
38488;DHT22;57384;51.986;4.458;2023-07-29T14:45:49;32.60;51.10
38488;DHT22;57384;51.986;4.458;2023-07-29T14:48:16;32.60;51.80
38488;DHT22;57384;51.986;4.458;2023-07-29T14:50:43;32.60;52.00
38488;DHT22;57384;51.986;4.458;2023-07-29T14:53:10;32.50;51.80
38488;DHT22;57384;51.986;4.458;2023-07-29T14:55:37;32.60;51.10
38488;DHT22;57384;51.986;4.458;2023-07-29T14:58:07;32.50;50.60
38488;DHT22;57384;51.986;4.458;2023-07-29T15:00:35;32.50;50.60
38488;DHT22;57384;51.986;4.458;2023-07-29T15:03:02;32.50;50.60
38488;DHT22;57384;51.986;4.458;2023-07-29T15:05:29;32.50;51.30
38488;DHT22;57384;51.986;4.458;2023-07-29T15:07:55;32.40;51.30
38488;DHT22;57384;51.986;4.458;2023-07-29T15:10:23;32.40;51.50
38488;DHT22;57384;51.986;4.458;2023-07-29T15:12:50;32.40;51.20
38488;DHT22;57384;51.986;4.458;2023-07-29T15:15:16;32.30;51.40
38488;DHT22;57384;51.986;4.458;2023-07-29T15:17:43;32.30;51.20
38488;DHT22;57384;51.986;4.458;2023-07-29T15:20:12;32.20;51.30
38488;DHT22;57384;51.986;4.458;2023-07-29T15:22:39;32.20;51.50
38488;DHT22;57384;51.986;4.458;2023-07-29T15:25:08;32.10;51.00
38488;DHT22;57384;51.986;4.458;2023-07-29T15:27:37;32.00;51.30
38488;DHT22;57384;51.986;4.458;2023-07-29T15:30:05;32.00;51.20
38488;DHT22;57384;51.986;4.458;2023-07-29T15:32:32;31.90;50.70
38488;DHT22;57384;51.986;4.458;2023-07-29T15:35:00;31.80;51.10
38488;DHT22;57384;51.986;4.458;2023-07-29T15:37:26;31.80;50.70
38488;DHT22;57384;51.986;4.458;2023-07-29T15:39:53;31.70;50.60
38488;DHT22;57384;51.986;4.458;2023-07-29T15:42:20;31.60;50.40
38488;DHT22;57384;51.986;4.458;2023-07-29T15:44:46;31.60;51.00
38488;DHT22;57384;51.986;4.458;2023-07-29T15:47:13;31.40;50.50
38488;DHT22;57384;51.986;4.458;2023-07-29T15:49:40;31.40;51.00
38488;DHT22;57384;51.986;4.458;2023-07-29T15:52:07;31.20;50.70
38488;DHT22;57384;51.986;4.458;2023-07-29T15:54:34;31.10;51.10
38488;DHT22;57384;51.986;4.458;2023-07-29T15:57:02;31.00;50.90
38488;DHT22;57384;51.986;4.458;2023-07-29T15:59:30;30.90;51.10
38488;DHT22;57384;51.986;4.458;2023-07-29T16:02:02;30.80;50.50